Time;durP1;ratioP1;P1;durP2;ratioP2;P2;SDS_P1;SDS_P2;PMS_P1;PMS_P2;Temp;Humidity;BMP_temperature;BMP_pressure;BME280_temperature;BME280_humidity;BME280_pressure;Samples;Min_cycle;Max_cycle;Signal;HPM_P1;HPM_P2
2024/04/02 00:00:34;;;;;;;5.45;2.28;;;14.10;90.80;;;;;;4972018;28;20031;-82
2024/04/02 00:03:00;;;;;;;3.97;2.20;;;14.00;90.80;;;;;;4972449;28;20511;-82
2024/04/02 00:05:25;;;;;;;5.10;2.20;;;14.00;90.80;;;;;;4972713;28;20023;-83
2024/04/02 00:07:51;;;;;;;4.35;2.17;;;14.00;90.80;;;;;;4954783;28;20113;-83
2024/04/02 00:10:17;;;;;;;5.20;2.33;;;14.00;91.00;;;;;;4971813;28;20046;-83
2024/04/02 00:12:42;;;;;;;4.10;2.00;;;14.10;90.80;;;;;;4954266;28;20039;-82
2024/04/02 00:15:11;;;;;;;4.30;1.90;;;14.10;90.80;;;;;;4972426;28;20023;-83
2024/04/02 00:17:37;;;;;;;3.35;1.90;;;14.00;90.70;;;;;;4955120;28;20023;-83
2024/04/02 00:20:05;;;;;;;3.53;1.70;;;14.10;90.80;;;;;;4972332;28;20372;-83
2024/04/02 00:22:31;;;;;;;4.55;2.17;;;14.00;90.70;;;;;;4955200;28;20034;-82
2024/04/02 00:24:56;;;;;;;5.18;2.42;;;14.00;90.70;;;;;;4954296;28;20027;-84
2024/04/02 00:27:22;;;;;;;4.72;2.05;;;14.00;90.70;;;;;;4976600;28;20029;-82
2024/04/02 00:29:48;;;;;;;4.07;1.88;;;14.10;90.80;;;;;;4973995;28;20541;-82
2024/04/02 00:32:16;;;;;;;5.05;2.20;;;14.00;90.70;;;;;;4974062;28;20030;-83
2024/04/02 00:34:45;;;;;;;5.38;2.22;;;14.00;90.70;;;;;;4974327;28;20031;-83
2024/04/02 00:37:10;;;;;;;4.70;1.90;;;14.00;90.70;;;;;;4974376;28;20035;-82
2024/04/02 00:39:39;;;;;;;4.78;1.98;;;13.90;90.70;;;;;;4977722;28;20568;-83
2024/04/02 00:42:05;;;;;;;4.18;2.00;;;14.00;90.70;;;;;;4977790;28;20065;-83
2024/04/02 00:44:36;;;;;;;4.60;1.85;;;14.00;90.70;;;;;;4977852;28;20065;-82
2024/04/02 00:47:03;;;;;;;4.57;2.10;;;14.00;90.70;;;;;;4995084;28;20030;-83
2024/04/02 00:49:30;;;;;;;3.92;2.00;;;14.00;90.70;;;;;;4977408;28;20114;-82
2024/04/02 00:51:56;;;;;;;4.53;2.00;;;14.00;90.70;;;;;;4995469;28;20033;-83
2024/04/02 00:54:21;;;;;;;3.47;1.90;;;14.00;90.70;;;;;;4994849;28;20038;-83
2024/04/02 00:56:47;;;;;;;4.68;2.10;;;14.00;90.70;;;;;;4978236;28;20117;-83
2024/04/02 00:59:13;;;;;;;4.10;1.95;;;14.00;90.70;;;;;;4977341;28;20038;-82
2024/04/02 01:01:39;;;;;;;5.10;2.30;;;14.00;90.70;;;;;;4977234;28;20030;-82
2024/04/02 01:04:05;;;;;;;3.60;1.90;;;14.00;90.70;;;;;;4994845;28;20038;-82
2024/04/02 01:06:31;;;;;;;4.20;1.90;;;13.90;90.70;;;;;;4978464;28;20077;-83
2024/04/02 01:08:57;;;;;;;4.45;2.00;;;14.00;90.70;;;;;;4995678;28;20026;-83
2024/04/02 01:11:24;;;;;;;5.05;1.70;;;13.90;90.60;;;;;;4994699;28;20065;-84
2024/04/02 01:13:51;;;;;;;4.38;2.05;;;14.10;90.60;;;;;;4977619;28;20109;-83
2024/04/02 01:16:17;;;;;;;3.47;1.70;;;14.00;90.60;;;;;;4978407;28;20514;-83
2024/04/02 01:18:46;;;;;;;4.45;1.80;;;14.00;90.70;;;;;;4977653;28;20447;-84
2024/04/02 01:21:19;;;;;;;3.85;1.98;;;14.00;90.70;;;;;;4977379;28;20030;-83
2024/04/02 01:23:47;;;;;;;3.63;2.03;;;14.00;90.70;;;;;;4995127;28;20491;-84
2024/04/02 01:26:13;;;;;;;3.72;1.88;;;14.00;90.70;;;;;;4995051;28;20026;-84
2024/04/02 01:28:39;;;;;;;3.65;1.92;;;14.00;90.70;;;;;;4994566;28;20113;-83
2024/04/02 01:31:05;;;;;;;3.55;1.90;;;13.90;90.70;;;;;;4977109;28;20027;-84
2024/04/02 01:33:31;;;;;;;3.50;2.00;;;14.00;90.70;;;;;;4978491;28;20711;-83
2024/04/02 01:35:56;;;;;;;4.30;2.10;;;14.00;90.70;;;;;;4977705;28;20030;-84
2024/04/02 01:38:22;;;;;;;4.05;1.73;;;14.00;90.70;;;;;;4977733;28;20405;-83
2024/04/02 01:40:48;;;;;;;3.15;1.73;;;14.00;90.70;;;;;;4977084;28;20026;-83
2024/04/02 01:43:13;;;;;;;4.03;1.67;;;14.00;90.70;;;;;;4994821;28;20045;-83
2024/04/02 01:45:39;;;;;;;3.45;1.60;;;14.00;90.70;;;;;;4996056;28;20427;-83
2024/04/02 01:48:05;;;;;;;3.90;1.80;;;14.00;90.70;;;;;;4994436;28;20053;-82
2024/04/02 01:50:33;;;;;;;5.05;2.03;;;13.90;90.70;;;;;;4977059;28;20026;-82
2024/04/02 01:52:59;;;;;;;3.35;1.63;;;13.90;90.70;;;;;;4995121;28;20054;-82
2024/04/02 01:55:25;;;;;;;3.25;1.58;;;14.00;90.70;;;;;;4994815;28;20030;-81
2024/04/02 01:57:51;;;;;;;3.65;1.60;;;13.90;90.70;;;;;;4977032;28;20053;-83
2024/04/02 02:00:19;;;;;;;4.38;2.03;;;13.90;90.70;;;;;;4977247;28;20061;-82
2024/04/02 02:02:45;;;;;;;3.05;1.48;;;13.80;90.60;;;;;;4994129;28;20732;-82
2024/04/02 02:05:14;;;;;;;3.67;1.70;;;13.90;90.70;;;;;;4994798;28;20023;-82
2024/04/02 02:07:39;;;;;;;4.22;1.60;;;13.80;90.60;;;;;;4976629;28;20069;-83
2024/04/02 02:10:05;;;;;;;4.03;1.95;;;14.00;90.60;;;;;;4976026;28;20030;-84
2024/04/02 02:12:31;;;;;;;4.32;1.90;;;14.00;90.60;;;;;;4993698;28;20042;-83
2024/04/02 02:14:57;;;;;;;4.25;1.70;;;14.00;90.60;;;;;;4976772;28;20454;-84
2024/04/02 02:17:23;;;;;;;4.65;1.88;;;13.90;90.60;;;;;;4976879;28;20065;-83
2024/04/02 02:19:48;;;;;;;3.47;1.70;;;14.00;90.60;;;;;;4994886;28;20117;-82
2024/04/02 02:22:14;;;;;;;3.33;1.60;;;14.80;90.80;;;;;;4993649;28;20038;-82
2024/04/02 02:24:40;;;;;;;4.05;1.77;;;13.90;90.50;;;;;;4976045;28;20022;-83
2024/04/02 02:27:05;;;;;;;4.35;1.67;;;14.00;90.60;;;;;;4975865;28;20022;-83
2024/04/02 02:29:31;;;;;;;4.15;1.73;;;13.80;90.50;;;;;;4976231;28;20571;-84
2024/04/02 02:31:59;;;;;;;3.60;1.80;;;14.30;90.60;;;;;;4977061;28;20030;-83
2024/04/02 02:34:25;;;;;;;3.63;1.60;;;13.90;90.50;;;;;;4976923;28;20038;-83
2024/04/02 02:36:51;;;;;;;2.47;1.35;;;13.90;90.50;;;;;;4977597;28;20050;-83
2024/04/02 02:39:17;;;;;;;3.28;1.63;;;14.00;90.50;;;;;;4994356;28;20109;-83
2024/04/02 02:41:45;;;;;;;3.50;1.85;;;14.00;90.60;;;;;;4976697;28;20030;-83
2024/04/02 02:44:14;;;;;;;2.88;1.58;;;13.80;90.50;;;;;;4983749;28;20050;-84
2024/04/02 02:46:40;;;;;;;3.90;1.90;;;13.90;90.50;;;;;;4977981;28;20023;-83
2024/04/02 02:49:06;;;;;;;3.42;1.70;;;14.50;90.70;;;;;;4993729;28;20076;-81
2024/04/02 02:51:34;;;;;;;3.65;1.80;;;13.90;90.50;;;;;;4976224;28;20517;-83
2024/04/02 02:53:59;;;;;;;3.13;1.60;;;14.00;90.50;;;;;;4976014;28;20026;-82
2024/04/02 02:56:25;;;;;;;3.13;1.60;;;14.00;90.60;;;;;;4976366;28;20089;-82
2024/04/02 02:58:51;;;;;;;3.15;1.63;;;13.90;90.50;;;;;;4993806;28;20038;-82
2024/04/02 03:01:17;;;;;;;3.47;1.80;;;13.80;90.50;;;;;;4975258;28;20037;-83
2024/04/02 03:03:51;;;;;;;3.92;1.67;;;14.00;90.50;;;;;;4976409;28;20161;-84
2024/04/02 03:06:18;;;;;;;3.25;1.70;;;14.00;90.50;;;;;;4975848;28;20022;-83
2024/04/02 03:08:44;;;;;;;4.00;1.70;;;13.80;90.50;;;;;;4976057;28;20121;-86
2024/04/02 03:11:09;;;;;;;3.35;1.60;;;14.00;90.60;;;;;;4992517;28;20121;-83
2024/04/02 03:13:35;;;;;;;4.40;1.70;;;14.00;90.50;;;;;;4975770;28;20050;-85
2024/04/02 03:16:03;;;;;;;3.67;1.70;;;13.80;90.50;;;;;;4993248;28;20034;-83
2024/04/02 03:18:29;;;;;;;3.42;1.67;;;14.00;90.50;;;;;;4978432;28;20038;-83
2024/04/02 03:20:55;;;;;;;3.60;1.60;;;14.00;90.50;;;;;;4976826;28;20129;-83
2024/04/02 03:23:20;;;;;;;3.92;1.80;;;13.90;90.50;;;;;;4976365;28;20116;-84
2024/04/02 03:25:56;;;;;;;2.67;1.50;;;13.90;90.50;;;;;;4995375;28;20105;-84
2024/04/02 03:28:23;;;;;;;3.67;1.60;;;13.90;90.50;;;;;;4978240;28;20022;-84
2024/04/02 03:30:49;;;;;;;3.20;1.48;;;13.90;90.50;;;;;;4978848;28;20093;-83
2024/04/02 03:33:15;;;;;;;3.67;1.60;;;13.80;90.40;;;;;;4980677;28;20030;-85
2024/04/02 03:35:41;;;;;;;2.58;1.30;;;13.90;90.50;;;;;;4995193;28;20088;-83
2024/04/02 03:38:06;;;;;;;2.95;1.60;;;13.90;90.50;;;;;;4978099;28;20038;-83
2024/04/02 03:40:36;;;;;;;2.55;1.50;;;13.90;90.40;;;;;;4977339;28;20084;-83
2024/04/02 03:43:04;;;;;;;2.53;1.42;;;13.90;90.40;;;;;;4994493;28;20030;-84
2024/04/02 03:45:30;;;;;;;2.88;1.30;;;13.90;90.40;;;;;;4993576;28;20030;-82
2024/04/02 03:47:56;;;;;;;3.80;1.60;;;13.90;90.40;;;;;;4978169;28;20038;-84
2024/04/02 03:50:21;;;;;;;2.60;1.38;;;13.90;90.40;;;;;;4978066;28;20045;-85
2024/04/02 03:52:47;;;;;;;2.60;1.50;;;13.90;90.50;;;;;;4979155;28;20046;-82
2024/04/02 03:55:13;;;;;;;2.20;1.20;;;13.90;90.40;;;;;;4979509;28;20037;-82
2024/04/02 03:57:39;;;;;;;2.45;1.48;;;13.90;90.50;;;;;;4978371;28;20026;-83
2024/04/02 04:00:06;;;;;;;2.05;1.30;;;13.90;90.50;;;;;;4978553;28;20030;-83
2024/04/02 04:02:32;;;;;;;2.75;1.30;;;13.90;90.40;;;;;;4996673;28;20030;-82
2024/04/02 04:04:58;;;;;;;3.05;1.60;;;13.90;90.50;;;;;;4978167;28;20033;-84
2024/04/02 04:07:24;;;;;;;2.72;1.30;;;13.80;90.40;;;;;;4979216;28;20085;-84
2024/04/02 04:09:49;;;;;;;4.70;1.33;;;13.90;90.40;;;;;;4978703;28;20018;-83
2024/04/02 04:12:18;;;;;;;2.58;1.50;;;13.90;90.50;;;;;;4928173;28;1421068;-83
2024/04/02 04:14:48;;;;;;;2.80;1.30;;;14.00;90.40;;;;;;4994789;28;20117;-81
2024/04/02 04:17:14;;;;;;;3.67;1.55;;;13.90;90.40;;;;;;4979174;28;20570;-83
2024/04/02 04:19:39;;;;;;;3.50;1.58;;;14.00;90.50;;;;;;4977537;28;20066;-84
2024/04/02 04:22:05;;;;;;;2.92;1.30;;;13.90;90.40;;;;;;4976093;28;20073;-83
2024/04/02 04:24:30;;;;;;;2.65;1.40;;;13.90;90.40;;;;;;4975929;28;20034;-81
2024/04/02 04:26:56;;;;;;;2.75;1.30;;;13.80;90.30;;;;;;4975854;28;20019;-84
2024/04/02 04:29:21;;;;;;;3.67;1.63;;;13.90;90.40;;;;;;4993469;28;20424;-82
2024/04/02 04:31:47;;;;;;;2.38;1.20;;;13.90;90.40;;;;;;4975301;28;20084;-80
2024/04/02 04:34:13;;;;;;;2.40;1.40;;;14.00;90.40;;;;;;4975406;28;20034;-83
2024/04/02 04:36:39;;;;;;;4.13;1.60;;;14.00;90.40;;;;;;4975437;28;20030;-83
2024/04/02 04:39:05;;;;;;;2.30;1.30;;;14.00;90.30;;;;;;4992927;28;20451;-84
2024/04/02 04:41:31;;;;;;;2.75;1.50;;;13.90;90.30;;;;;;4992808;28;20088;-83
2024/04/02 04:43:57;;;;;;;3.85;1.50;;;13.90;90.30;;;;;;4993199;28;20026;-83
2024/04/02 04:46:23;;;;;;;2.78;1.40;;;13.90;90.40;;;;;;4975637;28;20053;-83
2024/04/02 04:48:49;;;;;;;2.33;1.20;;;13.80;90.30;;;;;;4993171;28;20026;-83
2024/04/02 04:51:14;;;;;;;2.95;1.40;;;13.80;90.40;;;;;;4975658;28;20019;-82
2024/04/02 04:53:40;;;;;;;2.53;1.48;;;13.80;90.40;;;;;;4993086;28;20158;-84
2024/04/02 04:56:06;;;;;;;2.80;1.40;;;13.90;90.40;;;;;;4974949;28;20130;-84
2024/04/02 04:58:33;;;;;;;2.30;1.20;;;13.80;90.40;;;;;;4991524;28;20039;-84
2024/04/02 05:01:00;;;;;;;3.33;1.48;;;13.80;90.40;;;;;;4990801;28;20121;-82
2024/04/02 05:03:25;;;;;;;3.42;1.30;;;13.90;90.40;;;;;;4974681;28;20479;-84
2024/04/02 05:06:05;;;;;;;2.65;1.50;;;13.90;90.40;;;;;;4975815;28;20045;-84
2024/04/02 05:08:35;;;;;;;2.35;1.20;;;14.00;90.50;;;;;;4975730;28;20026;-84
2024/04/02 05:11:05;;;;;;;2.97;1.23;;;13.90;90.40;;;;;;4991927;28;20026;-83
2024/04/02 05:13:32;;;;;;;2.42;1.30;;;14.00;90.40;;;;;;4990986;28;20030;-82
2024/04/02 05:15:58;;;;;;;2.40;1.20;;;13.80;90.30;;;;;;4974386;28;20039;-82
2024/04/02 05:18:24;;;;;;;2.80;1.20;;;13.90;90.40;;;;;;4992272;28;20446;-84
2024/04/02 05:20:50;;;;;;;2.42;1.30;;;14.00;90.40;;;;;;4976064;28;20026;-81
2024/04/02 05:23:15;;;;;;;4.35;1.40;;;14.00;90.40;;;;;;4975288;28;20096;-85
2024/04/02 05:25:42;;;;;;;7.38;2.25;;;13.90;90.30;;;;;;4995507;28;20419;-81
2024/04/02 05:28:11;;;;;;;11.13;2.30;;;13.80;89.70;;;;;;4980692;28;20023;-84
2024/04/02 05:30:36;;;;;;;7.95;1.73;;;13.70;90.10;;;;;;4998810;28;20030;-85
2024/04/02 05:33:03;;;;;;;5.40;1.67;;;13.70;89.80;;;;;;4978022;28;20026;-83
2024/04/02 05:35:30;;;;;;;6.72;1.73;;;13.80;90.00;;;;;;4995438;28;20081;-83
2024/04/02 05:37:55;;;;;;;6.82;1.80;;;13.90;90.00;;;;;;4995102;28;20035;-84
2024/04/02 05:40:21;;;;;;;5.40;1.70;;;13.90;90.00;;;;;;4996309;28;20026;-83
2024/04/02 05:42:48;;;;;;;5.25;1.75;;;13.90;89.80;;;;;;4994936;28;20038;-82
2024/04/02 05:45:15;;;;;;;5.05;1.85;;;13.70;89.70;;;;;;4977177;28;20058;-82
2024/04/02 05:47:41;;;;;;;6.22;2.00;;;13.90;89.80;;;;;;4977511;28;20069;-83
2024/04/02 05:50:08;;;;;;;5.25;1.90;;;13.90;89.90;;;;;;4976446;28;20371;-84
2024/04/02 05:52:34;;;;;;;6.53;1.77;;;13.90;89.80;;;;;;4994978;28;20045;-83
2024/04/02 05:55:00;;;;;;;4.72;1.77;;;13.90;89.90;;;;;;4994956;28;20391;-83
2024/04/02 05:57:26;;;;;;;5.45;1.83;;;13.90;90.00;;;;;;4994447;28;20030;-82
2024/04/02 05:59:51;;;;;;;6.55;1.80;;;14.00;90.00;;;;;;4976797;28;20047;-82
2024/04/02 06:02:18;;;;;;;4.75;1.65;;;13.90;90.00;;;;;;4975846;28;20039;-82
2024/04/02 06:04:44;;;;;;;5.70;1.80;;;13.90;89.90;;;;;;4995746;28;20053;-83
2024/04/02 06:07:10;;;;;;;4.78;1.60;;;13.80;89.90;;;;;;4994750;28;20022;-82
2024/04/02 06:09:36;;;;;;;6.40;1.77;;;13.90;90.00;;;;;;4993472;28;20036;-82
2024/04/02 06:12:06;;;;;;;3.92;1.50;;;13.80;90.00;;;;;;4975287;28;20088;-82
2024/04/02 06:14:32;;;;;;;4.72;1.75;;;13.90;90.00;;;;;;4994693;28;20117;-82
2024/04/02 06:17:01;;;;;;;5.30;1.70;;;13.90;90.00;;;;;;4976509;28;20034;-82
2024/04/02 06:19:27;;;;;;;4.90;1.60;;;13.90;90.00;;;;;;4994090;28;20387;-83
2024/04/02 06:21:52;;;;;;;4.20;1.63;;;13.90;90.00;;;;;;4975862;28;20487;-82
2024/04/02 06:24:18;;;;;;;3.75;1.80;;;13.90;90.00;;;;;;4976692;28;20030;-83
2024/04/02 06:26:44;;;;;;;4.60;1.50;;;13.80;90.00;;;;;;4993359;28;20026;-82
2024/04/02 06:29:10;;;;;;;2.33;1.48;;;14.00;90.00;;;;;;4993503;28;20026;-82
2024/04/02 06:31:35;;;;;;;5.97;1.60;;;13.90;90.00;;;;;;4976109;28;20054;-83
2024/04/02 06:34:01;;;;;;;6.38;1.35;;;14.00;90.00;;;;;;4993628;28;20088;-82
2024/04/02 06:36:29;;;;;;;3.95;1.50;;;13.90;90.00;;;;;;4974875;28;20030;-83
2024/04/02 06:38:55;;;;;;;5.05;1.60;;;14.00;90.10;;;;;;4992165;28;20041;-81
2024/04/02 06:41:20;;;;;;;2.75;1.63;;;14.00;90.10;;;;;;4992906;28;20402;-80
2024/04/02 06:43:46;;;;;;;4.35;1.65;;;13.90;90.10;;;;;;4975262;28;20061;-81
2024/04/02 06:46:11;;;;;;;3.72;1.65;;;13.90;90.10;;;;;;4972528;28;20387;-82
2024/04/02 06:48:37;;;;;;;3.38;1.40;;;13.90;90.10;;;;;;4973476;28;20391;-81
2024/04/02 06:51:04;;;;;;;4.45;2.03;;;13.90;90.10;;;;;;4972185;28;20570;-82
2024/04/02 06:53:34;;;;;;;3.40;1.58;;;13.90;90.10;;;;;;4972007;28;20109;-81
2024/04/02 06:56:00;;;;;;;4.20;1.52;;;13.90;90.20;;;;;;4972417;28;20057;-83
2024/04/02 06:58:26;;;;;;;3.40;1.40;;;13.90;90.20;;;;;;4973668;28;20034;-82
2024/04/02 07:00:52;;;;;;;3.65;1.50;;;14.00;90.20;;;;;;4973144;28;20031;-83
2024/04/02 07:03:20;;;;;;;3.88;1.60;;;13.90;90.20;;;;;;4971893;28;20031;-82
2024/04/02 07:05:46;;;;;;;2.83;1.45;;;14.00;90.20;;;;;;4973669;28;20033;-83
2024/04/02 07:08:12;;;;;;;3.60;1.40;;;14.00;90.20;;;;;;4973040;28;20187;-81
2024/04/02 07:10:40;;;;;;;2.63;1.30;;;14.00;90.20;;;;;;4973113;28;20391;-82
2024/04/02 07:13:06;;;;;;;4.22;1.42;;;13.90;90.20;;;;;;4972177;28;20035;-83
2024/04/02 07:15:32;;;;;;;4.10;1.60;;;14.00;90.20;;;;;;4972260;28;20030;-83
2024/04/02 07:17:57;;;;;;;3.58;1.52;;;13.90;90.20;;;;;;4972993;28;20062;-83
2024/04/02 07:20:23;;;;;;;3.53;1.40;;;13.90;90.20;;;;;;4972403;28;20030;-82
2024/04/02 07:22:49;;;;;;;5.05;1.60;;;13.90;90.20;;;;;;4971217;28;20023;-82
2024/04/02 07:25:15;;;;;;;3.80;1.63;;;13.90;90.20;;;;;;4972128;28;20038;-82
2024/04/02 07:27:40;;;;;;;5.20;1.58;;;13.90;90.20;;;;;;4971887;28;20069;-81
2024/04/02 07:30:07;;;;;;;2.33;1.40;;;13.90;90.50;;;;;;4973500;28;20087;-83
2024/04/02 07:32:33;;;;;;;3.25;1.42;;;13.90;90.20;;;;;;4972054;28;20061;-82
2024/04/02 07:34:59;;;;;;;3.63;1.42;;;13.80;90.20;;;;;;4971439;28;20146;-83
2024/04/02 07:37:26;;;;;;;2.95;1.40;;;14.00;90.30;;;;;;4972345;28;20122;-82
2024/04/02 07:39:53;;;;;;;3.72;1.30;;;13.90;90.20;;;;;;4971696;28;20085;-82
2024/04/02 07:42:18;;;;;;;3.60;1.48;;;13.80;90.20;;;;;;4972964;28;20023;-82
2024/04/02 07:44:44;;;;;;;3.70;1.38;;;14.00;90.30;;;;;;4971160;28;20030;-83
2024/04/02 07:47:10;;;;;;;3.75;1.60;;;13.90;90.20;;;;;;4972793;28;20019;-81
2024/04/02 07:49:36;;;;;;;2.13;1.25;;;14.00;90.30;;;;;;4971469;28;20034;-83
2024/04/02 07:52:01;;;;;;;4.80;1.40;;;13.90;90.20;;;;;;4971691;28;20030;-82
2024/04/02 07:54:27;;;;;;;4.70;1.40;;;14.00;90.20;;;;;;4972207;28;20027;-81
2024/04/02 07:56:55;;;;;;;3.58;1.50;;;13.90;90.20;;;;;;4971089;28;20034;-82
2024/04/02 07:59:24;;;;;;;3.25;1.45;;;13.90;90.10;;;;;;4972301;28;20035;-83
2024/04/02 08:01:50;;;;;;;3.22;1.50;;;14.20;90.10;;;;;;4971095;28;20031;-83
2024/04/02 08:04:17;;;;;;;2.80;1.40;;;14.10;90.00;;;;;;4970696;28;20034;-79
2024/04/02 08:06:44;;;;;;;2.30;1.27;;;14.10;89.90;;;;;;4972417;28;20027;-83
2024/04/02 08:09:10;;;;;;;3.17;1.55;;;14.20;89.80;;;;;;4971634;28;20027;-83
2024/04/02 08:11:37;;;;;;;4.13;1.50;;;14.20;89.80;;;;;;4970086;28;20042;-81
2024/04/02 08:14:03;;;;;;;3.83;1.58;;;14.20;89.80;;;;;;4971877;28;20118;-83
2024/04/02 08:16:29;;;;;;;2.80;1.40;;;14.20;89.80;;;;;;4972036;28;20023;-84
2024/04/02 08:18:55;;;;;;;2.60;1.50;;;14.20;89.90;;;;;;4972258;28;20041;-84
2024/04/02 08:21:20;;;;;;;2.55;1.40;;;14.20;90.00;;;;;;4971288;28;20484;-84
2024/04/02 08:23:46;;;;;;;2.13;1.15;;;14.10;90.00;;;;;;4971392;28;20058;-85
2024/04/02 08:26:12;;;;;;;2.92;1.48;;;14.10;90.10;;;;;;4971922;28;20471;-84
2024/04/02 08:28:38;;;;;;;2.55;1.35;;;14.10;90.10;;;;;;4972540;28;20054;-84
2024/04/02 08:31:04;;;;;;;2.55;1.50;;;14.10;90.10;;;;;;4970870;28;20707;-83
2024/04/02 08:33:29;;;;;;;3.20;1.42;;;14.10;90.20;;;;;;4970993;28;20027;-84
2024/04/02 08:35:55;;;;;;;3.83;1.80;;;13.90;90.10;;;;;;4972451;28;20030;-84
2024/04/02 08:38:20;;;;;;;1.70;1.40;;;14.00;90.10;;;;;;4971908;28;20062;-84
2024/04/02 08:40:51;;;;;;;4.97;1.92;;;14.00;90.20;;;;;;4972273;28;20037;-82
2024/04/02 08:43:16;;;;;;;3.25;1.70;;;13.90;90.20;;;;;;4971417;28;20027;-83
2024/04/02 08:45:44;;;;;;;3.00;1.60;;;14.10;90.20;;;;;;4972117;28;20122;-85
2024/04/02 08:48:10;;;;;;;2.95;1.70;;;14.00;90.10;;;;;;4971547;28;20038;-85
2024/04/02 08:50:37;;;;;;;3.13;1.50;;;14.10;90.20;;;;;;4970571;28;20193;-81
2024/04/02 08:53:03;;;;;;;2.78;1.60;;;14.00;90.20;;;;;;4972686;28;20054;-83
2024/04/02 08:55:29;;;;;;;3.63;1.60;;;14.00;90.20;;;;;;4972691;28;20496;-85
2024/04/02 08:57:57;;;;;;;2.83;1.45;;;14.10;90.20;;;;;;4972353;28;20415;-84
2024/04/02 09:00:26;;;;;;;3.85;1.60;;;14.00;90.20;;;;;;4976043;28;20023;-84
2024/04/02 09:02:54;;;;;;;2.17;1.45;;;14.00;90.20;;;;;;4974510;28;20038;-83
2024/04/02 09:05:20;;;;;;;3.50;1.60;;;14.10;90.20;;;;;;4975752;28;20026;-84
2024/04/02 09:07:46;;;;;;;2.40;1.48;;;14.00;90.20;;;;;;4975956;28;20460;-85
2024/04/02 09:10:12;;;;;;;3.20;1.70;;;14.10;90.20;;;;;;4974663;28;20054;-84
2024/04/02 09:12:40;;;;;;;2.63;1.52;;;14.00;90.20;;;;;;4974461;28;20042;-85
2024/04/02 09:15:07;;;;;;;2.88;1.67;;;14.10;90.20;;;;;;4974192;28;20451;-85
2024/04/02 09:17:33;;;;;;;2.67;1.52;;;14.00;90.20;;;;;;4974531;28;20027;-84
2024/04/02 09:19:59;;;;;;;3.03;1.73;;;14.00;90.20;;;;;;4973731;28;20030;-85
2024/04/02 09:22:24;;;;;;;3.30;1.83;;;14.10;90.20;;;;;;4974248;28;20062;-83
2024/04/02 09:24:50;;;;;;;3.50;1.67;;;14.20;90.20;;;;;;4975604;28;20023;-85
2024/04/02 09:27:16;;;;;;;3.35;1.92;;;14.00;90.10;;;;;;4974309;28;20062;-85
2024/04/02 09:29:42;;;;;;;2.95;1.67;;;14.10;90.10;;;;;;4975192;28;20487;-85
2024/04/02 09:32:08;;;;;;;3.67;1.77;;;14.10;90.00;;;;;;4973638;28;20031;-85
2024/04/02 09:34:34;;;;;;;3.13;1.65;;;14.10;89.90;;;;;;4973961;28;20039;-84
2024/04/02 09:37:26;;;;;;;2.92;1.77;;;14.00;89.90;;;;;;4973845;28;20026;-84
2024/04/02 09:39:53;;;;;;;3.50;1.67;;;14.20;89.90;;;;;;4973193;28;20031;-84
2024/04/02 09:42:20;;;;;;;3.13;1.73;;;14.20;89.80;;;;;;4974668;28;20023;-84
2024/04/02 09:44:49;;;;;;;2.75;1.63;;;14.10;89.80;;;;;;4974428;28;20085;-84
2024/04/02 09:47:18;;;;;;;3.25;1.75;;;14.20;89.80;;;;;;4973708;28;20033;-84
2024/04/02 09:49:44;;;;;;;3.35;1.70;;;14.20;89.90;;;;;;4974596;28;20030;-85
2024/04/02 09:52:10;;;;;;;4.28;1.70;;;14.30;90.00;;;;;;4974174;28;20079;-83
2024/04/02 09:54:36;;;;;;;3.22;1.60;;;14.20;90.00;;;;;;4973758;28;20066;-84
2024/04/02 09:57:03;;;;;;;3.40;1.95;;;14.10;89.90;;;;;;4974985;28;20053;-85
2024/04/02 09:59:29;;;;;;;3.25;1.60;;;14.10;90.00;;;;;;4973953;28;20114;-84
2024/04/02 10:01:56;;;;;;;3.40;1.80;;;14.10;89.90;;;;;;4974240;28;20057;-85
2024/04/02 10:04:22;;;;;;;2.92;1.80;;;14.20;89.70;;;;;;4974047;28;20490;-84
2024/04/02 10:06:51;;;;;;;3.85;1.83;;;14.30;89.70;;;;;;4974888;28;20072;-85
2024/04/02 10:09:18;;;;;;;3.60;1.77;;;14.30;89.70;;;;;;4975419;28;20042;-85
2024/04/02 10:11:48;;;;;;;4.40;1.77;;;14.30;89.60;;;;;;4973527;28;20042;-82
2024/04/02 10:14:15;;;;;;;3.15;1.85;;;14.20;89.40;;;;;;4973709;28;20045;-84
2024/04/02 10:16:44;;;;;;;3.85;1.75;;;14.20;89.40;;;;;;4973837;28;20042;-85
2024/04/02 10:19:19;;;;;;;3.17;1.85;;;14.40;89.40;;;;;;4974456;28;20115;-84
2024/04/02 10:21:45;;;;;;;4.25;2.03;;;14.30;89.30;;;;;;4973022;28;20041;-83
2024/04/02 10:24:11;;;;;;;3.38;2.00;;;14.40;89.30;;;;;;4973792;28;20023;-83
2024/04/02 10:26:38;;;;;;;3.28;1.80;;;14.30;89.20;;;;;;4972315;28;20138;-84
2024/04/02 10:29:05;;;;;;;2.92;1.77;;;14.30;89.30;;;;;;4972981;28;20511;-84
2024/04/02 10:31:41;;;;;;;4.05;2.00;;;14.30;89.30;;;;;;4973484;28;20039;-83
2024/04/02 10:34:10;;;;;;;3.40;2.00;;;14.30;89.30;;;;;;4973165;28;20034;-84
2024/04/02 10:36:37;;;;;;;3.38;1.67;;;14.30;89.40;;;;;;4972875;28;20046;-84
2024/04/02 10:39:04;;;;;;;3.85;2.10;;;14.30;89.50;;;;;;4973058;28;20628;-85
2024/04/02 10:41:33;;;;;;;2.58;1.80;;;14.30;89.30;;;;;;4974161;28;20507;-84
2024/04/02 10:43:58;;;;;;;2.85;1.80;;;14.40;89.30;;;;;;4972879;28;20050;-84
2024/04/02 10:46:26;;;;;;;3.58;2.10;;;14.40;89.20;;;;;;4972820;28;20121;-84
2024/04/02 10:48:55;;;;;;;4.43;1.92;;;14.40;89.10;;;;;;4972525;28;20494;-84
2024/04/02 10:51:20;;;;;;;3.15;1.70;;;14.40;89.10;;;;;;4973236;28;20073;-83
2024/04/02 10:53:46;;;;;;;3.55;2.05;;;14.40;89.10;;;;;;4972690;28;20030;-84
2024/04/02 10:56:14;;;;;;;3.00;2.00;;;14.30;89.10;;;;;;4972440;28;20052;-83
2024/04/02 10:58:40;;;;;;;3.22;2.00;;;14.40;89.30;;;;;;4972872;28;20058;-84
2024/04/02 11:01:05;;;;;;;2.70;1.70;;;14.30;89.20;;;;;;4971371;28;20038;-84
2024/04/02 11:03:31;;;;;;;3.30;1.90;;;14.40;89.20;;;;;;4971725;28;20027;-82
2024/04/02 11:05:57;;;;;;;2.72;1.77;;;14.30;89.20;;;;;;4975606;28;20026;-85
2024/04/02 11:08:23;;;;;;;3.15;1.88;;;14.30;89.20;;;;;;4973632;28;20019;-83
2024/04/02 11:10:49;;;;;;;3.22;1.80;;;14.40;89.90;;;;;;4972238;28;20027;-84
2024/04/02 11:13:27;;;;;;;3.47;2.05;;;14.30;89.30;;;;;;4972391;28;20490;-83
2024/04/02 11:15:54;;;;;;;3.03;1.90;;;14.40;89.40;;;;;;4973851;28;20265;-84
2024/04/02 11:18:23;;;;;;;3.00;1.67;;;14.30;89.40;;;;;;4972474;28;20027;-83
2024/04/02 11:20:55;;;;;;;2.75;1.60;;;14.40;89.50;;;;;;4971591;28;20113;-83
2024/04/02 11:26:13;;;;;;;3.00;1.75;;;14.30;89.50;;;;;;4973714;28;20081;-83
2024/04/02 11:28:39;;;;;;;;;;;14.30;89.60;;;;;;4972756;28;20038;-85
2024/04/02 11:31:04;;;;;;;2.55;1.60;;;14.30;89.70;;;;;;4972160;28;20360;-84
2024/04/02 11:33:30;;;;;;;3.42;1.88;;;14.20;89.50;;;;;;4972497;28;20033;-84
2024/04/02 11:35:55;;;;;;;3.80;1.67;;;14.40;89.60;;;;;;4971807;28;20035;-84
2024/04/02 11:38:21;;;;;;;3.05;1.60;;;14.30;89.60;;;;;;4972431;28;20098;-85
2024/04/02 11:40:47;;;;;;;3.58;1.80;;;14.30;89.60;;;;;;4973956;28;20022;-82
2024/04/02 11:43:13;;;;;;;3.50;1.65;;;14.30;89.60;;;;;;4972902;28;20046;-85
2024/04/02 11:45:38;;;;;;;2.90;1.73;;;14.30;89.60;;;;;;4971781;28;20554;-84
2024/04/02 11:48:04;;;;;;;2.53;1.60;;;14.30;89.60;;;;;;4971719;28;20037;-85
2024/04/02 11:50:30;;;;;;;3.33;1.90;;;14.30;89.60;;;;;;4972661;28;20113;-83
2024/04/02 11:52:55;;;;;;;2.53;1.70;;;14.20;89.50;;;;;;4971434;28;20035;-83
2024/04/02 11:55:21;;;;;;;3.15;1.65;;;14.30;89.60;;;;;;4971977;28;20033;-83
2024/04/02 12:00:30;;;;;;;3.42;1.80;;;14.30;89.60;;;;;;4973552;28;20490;-82
2024/04/02 12:02:56;;;;;;;2.60;1.65;;;14.40;89.60;;;;;;4971119;28;20023;-83
2024/04/02 12:05:21;;;;;;;3.05;1.60;;;14.30;89.60;;;;;;4972941;28;20056;-83
2024/04/02 12:07:47;;;;;;;3.47;1.73;;;14.30;89.60;;;;;;4972882;28;20022;-85
2024/04/02 12:10:13;;;;;;;2.38;1.60;;;14.30;89.60;;;;;;4971208;28;20026;-84
2024/04/02 12:12:38;;;;;;;3.75;1.50;;;14.30;89.60;;;;;;4971034;28;20038;-85
2024/04/02 12:15:08;;;;;;;3.72;1.70;;;14.30;89.60;;;;;;4971293;28;20097;-84
2024/04/02 12:17:34;;;;;;;2.60;1.60;;;14.30;89.70;;;;;;4971393;28;20488;-85
2024/04/02 12:20:00;;;;;;;2.22;1.42;;;14.30;89.60;;;;;;4972242;28;20077;-85
2024/04/02 12:22:27;;;;;;;4.10;1.58;;;14.30;89.70;;;;;;4972425;28;20061;-82
2024/04/02 12:24:54;;;;;;;2.80;1.50;;;14.30;89.70;;;;;;4971450;28;20488;-83
2024/04/02 12:27:20;;;;;;;3.53;1.73;;;14.30;89.70;;;;;;4971012;28;20070;-84
2024/04/02 12:29:46;;;;;;;2.95;1.70;;;14.40;89.70;;;;;;4973399;28;20042;-85
2024/04/02 12:32:12;;;;;;;2.70;1.50;;;14.20;89.50;;;;;;4972248;28;20027;-84
2024/04/02 12:34:40;;;;;;;2.42;1.58;;;14.30;89.50;;;;;;4975687;28;20027;-84
2024/04/02 12:37:06;;;;;;;2.75;1.85;;;14.30;89.50;;;;;;4975169;28;20027;-84
2024/04/02 12:39:34;;;;;;;3.63;1.70;;;14.30;89.40;;;;;;4975600;28;20125;-84
2024/04/02 12:42:00;;;;;;;2.67;1.60;;;14.30;89.40;;;;;;4977455;28;20023;-84
2024/04/02 12:44:30;;;;;;;2.95;1.70;;;14.30;89.40;;;;;;4974956;28;20038;-85
2024/04/02 12:46:59;;;;;;;3.50;1.52;;;14.40;89.40;;;;;;4975434;28;20031;-84
2024/04/02 12:49:24;;;;;;;2.40;1.58;;;14.30;89.50;;;;;;4975747;28;20035;-83